Time;durP1;ratioP1;P1;durP2;ratioP2;P2;SDS_P1;SDS_P2;PMS_P1;PMS_P2;Temp;Humidity;BMP_temperature;BMP_pressure;BME280_temperature;BME280_humidity;BME280_pressure;Samples;Min_cycle;Max_cycle;Signal;HPM_P1;HPM_P2
2022/08/28 00:00:58;;;;;;;10.50;6.27;;;;;;;17.41;67.27;101284.09;4943738;29;20190;-65
2022/08/28 00:03:23;;;;;;;12.93;5.27;;;;;;;17.81;66.85;101278.41;4943088;29;20436;-65
2022/08/28 00:05:48;;;;;;;12.83;6.20;;;;;;;17.89;66.40;101280.97;4943208;29;20813;-65
2022/08/28 00:08:15;;;;;;;11.83;6.27;;;;;;;17.96;66.33;101281.78;4943680;29;20176;-65
2022/08/28 00:10:40;;;;;;;13.90;6.20;;;;;;;17.71;66.83;101275.91;4943144;29;20174;-65
2022/08/28 00:13:08;;;;;;;12.77;5.60;;;;;;;17.70;67.01;101279.41;4942831;29;20467;-65
2022/08/28 00:15:36;;;;;;;11.57;5.87;;;;;;;17.88;66.77;101288.91;4943753;29;20177;-66
2022/08/28 00:18:03;;;;;;;12.87;5.83;;;;;;;17.89;66.53;101286.25;4943081;29;20417;-65
2022/08/28 00:20:30;;;;;;;12.30;5.50;;;;;;;17.62;66.58;101287.44;4942973;29;20404;-65
2022/08/28 00:22:56;;;;;;;12.53;5.60;;;;;;;17.77;67.39;101292.53;4943109;29;20437;-65
2022/08/28 00:25:25;;;;;;;12.40;5.60;;;;;;;17.59;66.83;101288.34;4942813;29;20457;-65
2022/08/28 00:27:51;;;;;;;11.30;5.47;;;;;;;17.98;66.31;101283.53;4942857;29;20596;-66
2022/08/28 00:30:30;;;;;;;10.30;5.67;;;;;;;17.93;66.51;101289.75;4943242;29;20409;-66
2022/08/28 00:32:59;;;;;;;13.53;5.90;;;;;;;17.95;66.34;101280.91;4942613;29;20461;-65
2022/08/28 00:35:24;;;;;;;14.60;6.50;;;;;;;17.99;66.13;101281.75;4942603;29;20417;-65
2022/08/28 00:37:50;;;;;;;13.47;5.80;;;;;;;17.97;66.38;101279.13;4942596;29;20421;-65
2022/08/28 00:40:18;;;;;;;13.50;5.87;;;;;;;17.94;66.34;101279.19;4942587;29;20476;-65
2022/08/28 00:42:48;;;;;;;11.27;5.40;;;;;;;18.04;65.80;101279.94;4926497;29;20162;-65
2022/08/28 00:45:16;;;;;;;13.50;5.90;;;;;;;17.74;66.62;101274.09;4942502;29;20483;-65
2022/08/28 00:47:41;;;;;;;14.90;5.80;;;;;;;17.62;66.61;101279.53;4941831;29;20465;-65
2022/08/28 00:50:09;;;;;;;17.63;5.60;;;;;;;17.70;66.66;101275.03;4942645;29;20786;-65
2022/08/28 00:52:35;;;;;;;12.83;5.37;;;;;;;17.72;66.68;101278.50;4942137;29;20249;-65
2022/08/28 00:55:09;;;;;;;12.10;5.10;;;;;;;17.76;66.75;101284.63;4925857;29;20421;-65
2022/08/28 00:57:37;;;;;;;9.57;5.37;;;;;;;17.58;66.80;101283.94;4942426;29;20423;-67
2022/08/28 01:00:09;;;;;;;11.80;6.43;;;;;;;17.71;66.78;101281.16;4942264;29;21061;-66
2022/08/28 01:02:34;;;;;;;11.20;5.73;;;;;;;17.56;66.76;101282.22;4942158;29;20429;-67
2022/08/28 01:04:59;;;;;;;12.50;5.50;;;;;;;17.84;66.05;101272.22;4942145;29;20457;-65
2022/08/28 01:07:25;;;;;;;17.50;6.00;;;;;;;17.74;66.43;101282.03;4926004;29;20479;-66
2022/08/28 01:09:52;;;;;;;14.47;6.00;;;;;;;17.98;65.91;101280.88;4941884;29;20173;-65
2022/08/28 01:12:21;;;;;;;11.70;6.10;;;;;;;17.91;66.02;101278.31;4925417;29;20521;-66
2022/08/28 01:14:49;;;;;;;13.27;5.63;;;;;;;17.61;66.69;101277.78;4942229;29;20469;-66
2022/08/28 01:17:16;;;;;;;13.60;6.23;;;;;;;17.80;66.49;101278.44;4925236;29;20687;-66
2022/08/28 01:19:51;;;;;;;10.10;5.50;;;;;;;17.74;66.43;101283.75;4925119;29;20491;-66
2022/08/28 01:22:25;;;;;;;14.80;6.13;;;;;;;17.92;66.13;101280.09;4925733;29;20416;-65
2022/08/28 01:24:53;;;;;;;12.63;6.43;;;;;;;17.73;66.63;101289.94;4925047;29;20746;-66
2022/08/28 01:27:18;;;;;;;11.10;5.23;;;;;;;17.60;66.55;101283.94;4925257;29;20388;-66
2022/08/28 01:29:44;;;;;;;16.20;6.40;;;;;;;17.66;66.93;101289.16;4941805;29;20422;-66
2022/08/28 01:32:10;;;;;;;17.00;5.80;;;;;;;17.56;66.87;101284.84;4942277;29;20948;-65
2022/08/28 01:34:36;;;;;;;12.60;5.60;;;;;;;17.81;66.63;101290.72;4941423;29;20421;-65
2022/08/28 01:37:01;;;;;;;11.37;5.80;;;;;;;17.59;67.12;101290.09;4941438;29;20196;-67
2022/08/28 01:39:27;;;;;;;23.90;6.00;;;;;;;17.77;66.68;101295.16;4942031;29;20184;-66
2022/08/28 01:41:54;;;;;;;10.30;5.70;;;;;;;17.70;66.73;101295.25;4941408;29;20188;-65
2022/08/28 01:44:23;;;;;;;11.60;6.37;;;;;;;17.42;66.95;101296.41;4941292;29;20170;-66
2022/08/28 01:46:50;;;;;;;11.47;5.70;;;;;;;17.76;66.38;101296.03;4909678;29;20425;-67
2022/08/28 01:49:15;;;;;;;12.43;5.67;;;;;;;17.95;66.14;101302.00;4924665;29;20492;-66
2022/08/28 01:51:41;;;;;;;18.57;7.00;;;;;;;17.46;66.88;101294.63;4941304;29;20693;-66
2022/08/28 01:54:07;;;;;;;10.93;5.53;;;;;;;17.57;66.88;101305.06;4941565;29;20178;-66
2022/08/28 01:56:33;;;;;;;14.07;5.70;;;;;;;17.62;67.07;101297.97;4941055;29;20173;-65
2022/08/28 01:59:00;;;;;;;15.17;6.97;;;;;;;17.55;66.88;101305.06;4924518;29;20424;-65
2022/08/28 02:01:25;;;;;;;14.53;5.93;;;;;;;17.51;66.96;101304.22;4924851;29;20440;-65
2022/08/28 02:03:51;;;;;;;10.80;5.43;;;;;;;17.76;66.79;101308.38;4940884;29;20388;-65
2022/08/28 02:06:18;;;;;;;12.97;5.57;;;;;;;17.72;66.74;101307.53;4941032;29;20173;-65
2022/08/28 02:08:43;;;;;;;11.03;5.40;;;;;;;17.58;66.73;101312.09;4941352;29;20804;-65
2022/08/28 02:11:09;;;;;;;14.27;5.80;;;;;;;17.62;66.80;101303.25;4941079;29;20429;-65
2022/08/28 02:13:35;;;;;;;13.13;7.00;;;;;;;17.53;67.29;101313.88;4940723;29;20217;-65
2022/08/28 02:16:02;;;;;;;11.33;5.50;;;;;;;17.78;66.45;101312.75;4941625;29;20417;-65
2022/08/28 02:18:28;;;;;;;14.50;5.97;;;;;;;17.71;66.39;101312.81;4940830;29;20456;-65
2022/08/28 02:20:53;;;;;;;16.03;6.23;;;;;;;17.74;66.26;101316.31;4924221;29;20424;-65
2022/08/28 02:23:19;;;;;;;12.30;5.60;;;;;;;17.26;67.58;101310.63;4940919;29;20221;-65
2022/08/28 02:25:44;;;;;;;16.10;5.80;;;;;;;17.37;67.35;101310.53;4940800;29;20225;-65
2022/08/28 02:28:09;;;;;;;13.93;5.53;;;;;;;17.27;67.50;101317.66;4940918;29;20448;-65
2022/08/28 02:30:37;;;;;;;9.77;5.60;;;;;;;17.45;67.25;101306.91;4940937;29;20177;-65
2022/08/28 02:33:02;;;;;;;10.90;6.00;;;;;;;17.47;67.13;101304.28;4940506;29;20209;-65
2022/08/28 02:35:30;;;;;;;16.47;6.87;;;;;;;17.44;67.11;101305.19;4941187;29;20469;-66
2022/08/28 02:37:56;;;;;;;15.43;7.83;;;;;;;17.40;67.00;101298.19;4940632;29;20165;-66
2022/08/28 02:40:22;;;;;;;12.33;6.77;;;;;;;17.50;67.17;101294.56;4940623;29;20477;-65
2022/08/28 02:42:48;;;;;;;14.70;6.40;;;;;;;17.25;67.50;101298.31;4940961;29;20376;-65
2022/08/28 02:45:14;;;;;;;15.13;6.73;;;;;;;17.36;67.24;101301.75;4924046;29;20491;-65
2022/08/28 02:47:42;;;;;;;18.27;6.07;;;;;;;17.38;67.06;101294.69;4940510;29;20520;-65
2022/08/28 02:50:09;;;;;;;18.03;7.43;;;;;;;17.48;66.80;101293.72;4941093;29;20388;-66
2022/08/28 02:52:36;;;;;;;13.27;5.67;;;;;;;17.22;67.21;101298.38;4940494;29;20480;-66
2022/08/28 02:55:02;;;;;;;10.47;5.80;;;;;;;17.38;67.12;101297.31;4940351;29;20421;-65
2022/08/28 02:57:29;;;;;;;15.07;5.97;;;;;;;17.30;66.91;101301.81;4940954;29;20415;-64
2022/08/28 02:59:55;;;;;;;10.87;5.50;;;;;;;17.36;66.88;101298.22;4940678;29;20440;-65
2022/08/28 03:02:20;;;;;;;14.03;6.03;;;;;;;17.58;65.94;101299.75;4940547;29;20735;-65
2022/08/28 03:04:47;;;;;;;14.57;5.77;;;;;;;17.64;66.44;101306.72;4940724;29;20417;-65
2022/08/28 03:07:14;;;;;;;12.67;5.83;;;;;;;17.22;67.28;101299.22;4940370;29;20578;-65
2022/08/28 03:09:40;;;;;;;12.87;5.67;;;;;;;17.39;66.84;101306.13;4924304;29;20707;-64
2022/08/28 03:12:06;;;;;;;13.83;5.40;;;;;;;17.14;67.56;101298.41;4942756;29;20856;-64
2022/08/28 03:14:31;;;;;;;12.50;5.47;;;;;;;16.98;67.83;101297.66;4943983;29;20484;-66
2022/08/28 03:16:57;;;;;;;13.90;5.70;;;;;;;17.03;67.92;101302.91;4944134;29;20797;-65
2022/08/28 03:19:23;;;;;;;10.53;5.50;;;;;;;17.24;67.60;101302.75;4944411;29;20380;-65
2022/08/28 03:21:48;;;;;;;14.23;6.03;;;;;;;17.31;67.10;101309.69;4944160;29;20202;-66
2022/08/28 03:24:14;;;;;;;17.10;6.33;;;;;;;17.17;67.39;101307.19;4944037;29;20530;-65
2022/08/28 03:26:39;;;;;;;14.60;5.10;;;;;;;17.02;67.72;101309.94;4944779;29;20185;-65
2022/08/28 03:29:04;;;;;;;14.57;6.10;;;;;;;17.02;68.24;101306.44;4943937;29;20257;-66
2022/08/28 03:31:32;;;;;;;10.70;7.57;;;;;;;17.22;67.54;101309.75;4943904;29;20232;-66
2022/08/28 03:33:58;;;;;;;12.20;5.30;;;;;;;17.37;66.76;101308.75;4943963;29;20201;-66
2022/08/28 03:36:27;;;;;;;14.40;5.80;;;;;;;17.43;66.61;101308.69;4943752;29;20403;-66
2022/08/28 03:38:54;;;;;;;11.13;6.57;;;;;;;17.37;66.80;101305.25;4943722;29;20396;-66
2022/08/28 03:41:22;;;;;;;15.67;6.50;;;;;;;17.15;67.07;101305.44;4944045;29;20384;-66
2022/08/28 03:43:47;;;;;;;10.30;7.20;;;;;;;17.12;67.29;101303.72;4927113;29;20384;-66
2022/08/28 03:46:15;;;;;;;13.57;6.40;;;;;;;17.01;67.65;101305.56;4943644;29;20418;-66
2022/08/28 03:48:41;;;;;;;14.43;6.30;;;;;;;16.91;68.15;101301.25;4944095;29;20173;-66
2022/08/28 03:51:15;;;;;;;13.63;5.63;;;;;;;17.02;68.25;101307.28;4943561;29;20448;-67
2022/08/28 03:53:41;;;;;;;14.97;5.60;;;;;;;16.85;68.19;101304.78;4926735;29;20208;-66
2022/08/28 03:56:08;;;;;;;10.30;5.33;;;;;;;16.75;68.92;101306.59;4926971;29;20402;-66
2022/08/28 03:58:34;;;;;;;13.50;7.17;;;;;;;17.26;67.59;101300.09;4926857;29;20392;-66
2022/08/28 04:00:59;;;;;;;13.30;6.10;;;;;;;17.15;67.84;101308.94;4943733;29;20463;-66
2022/08/28 04:03:24;;;;;;;12.20;7.33;;;;;;;17.25;67.16;101299.22;4926631;29;20180;-66
2022/08/28 04:05:50;;;;;;;12.70;5.50;;;;;;;17.11;67.56;101311.63;4943211;29;20482;-66
2022/08/28 04:08:17;;;;;;;10.50;6.03;;;;;;;16.84;69.03;101305.66;4943508;29;20197;-66
2022/08/28 04:10:44;;;;;;;11.70;5.60;;;;;;;17.00;68.58;101309.94;4943311;29;20424;-66
2022/08/28 04:13:10;;;;;;;19.80;5.77;;;;;;;17.25;67.86;101304.50;4942822;29;20444;-65
2022/08/28 04:15:36;;;;;;;12.73;5.40;;;;;;;16.98;68.40;101302.94;4943402;29;20428;-66
2022/08/28 04:18:01;;;;;;;11.90;5.43;;;;;;;17.18;67.57;101302.78;4943089;29;20388;-66
2022/08/28 04:20:27;;;;;;;12.43;5.77;;;;;;;17.13;67.95;101300.19;4943148;29;20178;-66
2022/08/28 04:22:52;;;;;;;12.77;5.70;;;;;;;17.12;67.88;101302.84;4941985;29;20170;-66
2022/08/28 04:25:18;;;;;;;12.23;6.40;;;;;;;17.10;67.91;101308.13;4942779;29;20229;-67
2022/08/28 04:27:44;;;;;;;13.07;6.60;;;;;;;17.25;67.84;101312.41;4942939;29;20216;-66
2022/08/28 04:30:10;;;;;;;11.27;6.40;;;;;;;17.40;67.38;101313.13;4943676;29;20532;-65
2022/08/28 04:32:36;;;;;;;10.17;5.67;;;;;;;16.98;67.86;101309.09;4926129;29;20606;-66
2022/08/28 04:35:03;;;;;;;11.63;6.53;;;;;;;16.84;68.21;101314.44;4942720;29;20425;-66
2022/08/28 04:37:29;;;;;;;9.90;4.50;;;;;;;16.93;68.76;101308.25;4943138;29;20483;-66
2022/08/28 04:39:54;;;;;;;18.33;7.43;;;;;;;17.14;67.72;101307.22;4942640;29;20496;-67
2022/08/28 04:42:20;;;;;;;15.70;10.17;;;;;;;17.15;68.23;101308.09;4942604;29;20172;-66
2022/08/28 04:44:45;;;;;;;19.83;10.43;;;;;;;16.98;68.44;101311.72;4943027;29;20208;-66
2022/08/28 04:47:10;;;;;;;17.93;12.57;;;;;;;17.06;67.99;101301.16;4942527;29;20178;-66
2022/08/28 04:49:36;;;;;;;10.47;6.10;;;;;;;17.15;67.21;101318.63;4942594;29;20187;-66
2022/08/28 04:52:02;;;;;;;10.57;6.03;;;;;;;17.38;66.80;101314.91;4942888;29;20177;-66
2022/08/28 04:54:28;;;;;;;30.93;20.00;;;;;;;17.50;65.86;101314.78;4941464;29;20237;-66
2022/08/28 04:56:54;;;;;;;13.43;5.10;;;;;;;17.44;66.10;101315.72;4925833;29;20421;-65
2022/08/28 04:59:19;;;;;;;24.40;15.20;;;;;;;17.17;66.45;101317.72;4942719;29;20497;-65
2022/08/28 05:01:44;;;;;;;31.20;21.50;;;;;;;17.61;65.98;101312.03;4942289;29;20209;-66
2022/08/28 05:04:10;;;;;;;18.37;12.20;;;;;;;17.56;66.24;101312.06;4942083;29;20554;-66
2022/08/28 05:06:42;;;;;;;18.40;8.33;;;;;;;17.60;65.70;101321.72;4942649;29;20408;-65
2022/08/28 05:09:07;;;;;;;20.60;10.30;;;;;;;17.53;65.79;101313.88;4942242;29;20647;-65
2022/08/28 05:11:32;;;;;;;17.60;9.47;;;;;;;17.67;65.46;101323.41;4925601;29;20469;-65
2022/08/28 05:13:58;;;;;;;12.97;7.10;;;;;;;17.97;64.32;101320.47;4942216;29;20329;-65
2022/08/28 05:16:23;;;;;;;13.43;7.27;;;;;;;17.97;64.70;101321.34;4941889;29;20177;-65
2022/08/28 05:18:49;;;;;;;15.73;7.00;;;;;;;17.50;65.67;101334.09;4941914;29;20193;-65
2022/08/28 05:21:20;;;;;;;12.07;6.03;;;;;;;17.32;66.25;101329.88;4942590;29;20184;-62
2022/08/28 05:23:53;;;;;;;13.60;5.80;;;;;;;17.64;65.64;101333.09;4941484;29;20315;-54
2022/08/28 05:26:19;;;;;;;8.50;5.00;;;;;;;18.42;63.32;101333.97;4941647;29;20425;-56
2022/08/28 05:28:47;;;;;;;10.70;5.20;;;;;;;18.14;63.64;101344.91;4941719;29;20477;-52
2022/08/28 05:31:18;;;;;;;9.03;5.23;;;;;;;18.68;62.28;101336.22;4941654;29;20192;-58
2022/08/28 05:33:44;;;;;;;12.37;5.20;;;;;;;18.46;62.88;101333.03;4941555;29;20457;-55
2022/08/28 05:36:10;;;;;;;9.40;5.00;;;;;;;18.50;63.12;101333.88;4941453;29;20516;-58
2022/08/28 05:38:36;;;;;;;12.97;5.67;;;;;;;18.72;62.07;101333.56;4941520;29;20533;-57
2022/08/28 05:41:02;;;;;;;12.63;4.93;;;;;;;18.97;61.10;101326.16;4925311;29;20548;-56
2022/08/28 05:43:28;;;;;;;9.23;5.17;;;;;;;19.46;59.89;101325.34;4941262;29;20504;-57
2022/08/28 05:46:02;;;;;;;13.47;4.57;;;;;;;20.45;56.02;101326.03;4941358;29;20218;-55
2022/08/28 05:48:30;;;;;;;8.90;4.90;;;;;;;21.63;52.60;101318.78;4941362;29;20432;-58
2022/08/28 05:50:57;;;;;;;6.23;4.17;;;;;;;22.77;49.37;101319.00;4925042;29;20818;-55
2022/08/28 05:53:24;;;;;;;12.13;6.27;;;;;;;22.87;50.14;101317.81;4924825;29;20476;-58
2022/08/28 05:55:50;;;;;;;11.47;5.10;;;;;;;22.79;49.27;101318.03;4940908;29;20429;-68
2022/08/28 05:58:32;;;;;;;6.27;4.00;;;;;;;23.13;48.26;101316.97;4939678;29;20416;-67
2022/08/28 06:01:07;;;;;;;8.67;4.40;;;;;;;23.19;48.07;101318.53;4940912;29;20453;-67
2022/08/28 06:03:33;;;;;;;9.53;5.10;;;;;;;25.39;44.06;101311.06;4940931;29;20425;-68
2022/08/28 06:05:59;;;;;;;11.67;4.93;;;;;;;24.54;44.64;101317.19;4924422;29;20490;-69
2022/08/28 06:08:25;;;;;;;7.60;4.10;;;;;;;25.30;43.27;101314.09;4941100;29;20440;-68
2022/08/28 06:10:51;;;;;;;8.03;4.17;;;;;;;24.92;43.84;101329.94;4941381;29;20444;-68
2022/08/28 06:13:16;;;;;;;10.37;4.50;;;;;;;24.80;43.55;101321.53;4940588;29;20468;-68
2022/08/28 06:15:43;;;;;;;10.23;4.73;;;;;;;25.58;42.19;101318.28;4940885;29;20547;-69
2022/08/28 06:18:08;;;;;;;10.63;4.17;;;;;;;25.67;41.67;101318.75;4924927;29;20169;-66
2022/08/28 06:20:40;;;;;;;8.47;4.43;;;;;;;25.28;42.70;101324.00;4940841;29;20424;-65
2022/08/28 06:23:06;;;;;;;9.80;4.00;;;;;;;24.66;43.77;101332.72;4939979;29;20185;-67
2022/08/28 06:25:45;;;;;;;9.03;4.10;;;;;;;25.51;42.05;101325.69;4940664;29;20466;-67
2022/08/28 06:28:12;;;;;;;8.07;4.37;;;;;;;25.52;41.74;101327.44;4940816;29;20430;-68
2022/08/28 06:30:39;;;;;;;7.43;4.40;;;;;;;26.34;40.42;101321.06;4940721;29;20457;-67
2022/08/28 06:33:06;;;;;;;7.63;4.10;;;;;;;25.10;42.23;101326.50;4940667;29;20469;-68
2022/08/28 06:35:33;;;;;;;6.60;4.30;;;;;;;26.57;39.91;101327.97;4941034;29;20744;-68
2022/08/28 06:37:59;;;;;;;8.20;4.43;;;;;;;26.29;40.77;101323.09;4924246;29;20459;-68
2022/08/28 06:40:25;;;;;;;10.47;4.53;;;;;;;27.39;38.61;101332.88;4940528;29;20722;-68
2022/08/28 06:42:50;;;;;;;7.10;4.30;;;;;;;26.54;38.97;101328.16;4941088;29;20397;-68
2022/08/28 06:45:16;;;;;;;7.00;3.60;;;;;;;27.48;37.83;101334.22;4940549;29;20421;-69
2022/08/28 06:47:41;;;;;;;7.27;4.10;;;;;;;26.58;38.84;101327.06;4943522;29;20173;-68
2022/08/28 06:50:07;;;;;;;7.53;3.83;;;;;;;26.80;38.61;101329.56;4945124;29;20473;-66
2022/08/28 06:52:32;;;;;;;9.47;4.10;;;;;;;27.73;37.70;101335.59;4944460;29;20197;-66
2022/08/28 06:54:58;;;;;;;7.80;4.17;;;;;;;27.32;37.81;101339.47;4944232;29;20572;-67
2022/08/28 06:57:24;;;;;;;11.77;4.03;;;;;;;27.56;36.60;101342.72;4944690;29;20173;-69
2022/08/28 06:59:54;;;;;;;8.07;3.93;;;;;;;26.82;38.03;101341.06;4944298;29;20272;-68
2022/08/28 07:02:20;;;;;;;10.10;3.90;;;;;;;27.68;36.88;101348.38;4944094;29;20429;-67
2022/08/28 07:04:50;;;;;;;5.27;3.90;;;;;;;27.33;37.32;101351.03;4927920;29;20413;-68
2022/08/28 07:07:15;;;;;;;9.23;4.60;;;;;;;28.92;35.29;101342.47;4944130;29;20257;-68
2022/08/28 07:09:41;;;;;;;6.43;4.20;;;;;;;28.74;35.49;101341.75;4943997;29;20462;-69
2022/08/28 07:12:07;;;;;;;6.40;4.10;;;;;;;28.15;35.92;101342.28;4942876;29;20209;-66
2022/08/28 07:14:33;;;;;;;7.83;4.00;;;;;;;28.26;36.13;101340.84;4943795;29;20185;-67
2022/08/28 07:16:58;;;;;;;5.77;4.10;;;;;;;28.42;36.03;101333.66;4943928;29;20536;-68
2022/08/28 07:19:23;;;;;;;9.50;4.20;;;;;;;28.18;35.95;101339.44;4944177;29;20424;-68
2022/08/28 07:21:49;;;;;;;5.97;3.60;;;;;;;27.34;36.65;101345.59;4943885;29;20454;-69
2022/08/28 07:24:15;;;;;;;5.40;4.13;;;;;;;27.97;36.02;101337.88;4943572;29;20448;-69
2022/08/28 07:26:42;;;;;;;6.70;4.73;;;;;;;27.94;35.34;101343.41;4944386;29;20174;-68
2022/08/28 07:29:08;;;;;;;10.03;5.03;;;;;;;29.06;32.63;101342.53;4927318;29;20503;-69
2022/08/28 07:31:33;;;;;;;9.73;4.20;;;;;;;28.40;33.65;101344.47;4943805;29;20520;-68
2022/08/28 07:33:58;;;;;;;5.93;3.83;;;;;;;28.02;34.58;101352.81;4943772;29;20205;-73
2022/08/28 07:36:26;;;;;;;6.83;4.17;;;;;;;28.84;33.10;101342.91;4943735;29;20173;-72
2022/08/28 07:38:52;;;;;;;8.23;4.30;;;;;;;28.69;32.61;101352.72;4943453;29;20539;-73
2022/08/28 07:41:21;;;;;;;7.87;3.93;;;;;;;28.20;33.60;101350.94;4943435;29;20461;-73
2022/08/28 07:46:31;;;;;;;7.10;4.20;;;;;;;28.22;33.54;101362.44;4943775;29;20448;-73
2022/08/28 07:48:57;;;;;;;7.43;4.20;;;;;;;28.28;33.52;101368.41;4943479;29;20437;-73
2022/08/28 07:51:24;;;;;;;9.20;4.40;;;;;;;27.12;35.36;101374.41;4943688;29;20521;-74
2022/08/28 07:53:49;;;;;;;7.40;3.97;;;;;;;28.32;33.58;101368.19;4943667;29;20461;-73
2022/08/28 07:56:15;;;;;;;8.23;4.23;;;;;;;27.16;35.86;101370.66;4943202;29;20429;-73
2022/08/28 07:58:40;;;;;;;6.67;4.33;;;;;;;26.55;36.95;101373.53;4926352;29;20176;-72
2022/08/28 08:01:06;;;;;;;9.23;5.93;;;;;;;25.09;39.69;101387.94;4943734;29;20170;-72
2022/08/28 08:03:31;;;;;;;7.17;4.30;;;;;;;24.34;40.83;101390.81;4943181;29;20260;-73
2022/08/28 08:06:01;;;;;;;9.30;4.30;;;;;;;24.88;39.81;101380.75;4943042;29;20433;-73
2022/08/28 08:08:28;;;;;;;11.33;5.20;;;;;;;24.62;40.56;101384.44;4943707;29;20248;-72
2022/08/28 08:11:01;;;;;;;6.63;4.30;;;;;;;25.63;38.27;101383.03;4943121;29;20496;-72
2022/08/28 08:13:28;;;;;;;7.00;4.30;;;;;;;26.85;36.36;101375.69;4942984;29;20465;-72
2022/08/28 08:15:53;;;;;;;5.50;3.90;;;;;;;27.58;34.76;101369.41;4942987;29;20645;-73
2022/08/28 08:18:19;;;;;;;7.00;4.60;;;;;;;25.29;38.11;101384.41;4942925;29;20413;-73
2022/08/28 08:20:44;;;;;;;9.20;4.57;;;;;;;26.77;36.28;101369.84;4943182;29;20252;-73
2022/08/28 08:23:10;;;;;;;6.30;4.60;;;;;;;26.52;35.96;101379.03;4942602;29;20187;-73
2022/08/28 08:25:35;;;;;;;6.67;4.90;;;;;;;26.76;35.19;101381.47;4943037;29;20438;-73
2022/08/28 08:28:02;;;;;;;6.13;3.80;;;;;;;28.15;33.06;101377.13;4943232;29;20169;-73
2022/08/28 08:30:28;;;;;;;6.37;4.20;;;;;;;27.54;33.83;101384.78;4942534;29;20174;-73
2022/08/28 08:32:53;;;;;;;9.43;4.37;;;;;;;28.25;33.03;101376.63;4942204;29;20527;-73
2022/08/28 08:35:19;;;;;;;7.13;4.37;;;;;;;27.11;34.17;101381.56;4943219;29;20204;-72
2022/08/28 08:37:44;;;;;;;8.13;5.07;;;;;;;25.25;37.82;101390.81;4925999;29;20176;-72
2022/08/28 08:40:14;;;;;;;9.80;4.50;;;;;;;25.13;38.45;101389.56;4942747;29;20169;-73
2022/08/28 08:42:45;;;;;;;8.10;4.47;;;;;;;26.29;37.18;101382.78;4943129;29;20177;-73
2022/08/28 08:45:12;;;;;;;7.53;4.60;;;;;;;25.55;38.17;101384.22;4942729;29;20413;-73
2022/08/28 08:47:58;;;;;;;12.53;4.43;;;;;;;27.66;33.86;101374.38;4925999;29;20463;-73
2022/08/28 08:50:29;;;;;;;5.43;4.10;;;;;;;27.84;33.59;101384.09;4941910;29;20422;-73
2022/08/28 08:53:16;;;;;;;6.80;4.70;;;;;;;29.31;31.22;101375.13;4925419;29;20759;-73
2022/08/28 08:55:45;;;;;;;12.20;4.40;;;;;;;29.35;30.39;101369.50;4942123;29;20644;-73
2022/08/28 08:58:32;;;;;;;7.43;4.40;;;;;;;29.27;31.19;101377.16;4925703;29;20516;-73
2022/08/28 09:01:15;;;;;;;7.53;4.10;;;;;;;29.17;31.52;101368.75;4925472;29;20417;-71
2022/08/28 09:03:50;;;;;;;10.50;4.17;;;;;;;29.60;31.02;101370.72;4942024;29;20776;-73
2022/08/28 09:06:35;;;;;;;5.03;4.20;;;;;;;30.20;30.47;101366.16;4942159;29;20807;-74
2022/08/28 09:09:04;;;;;;;8.77;4.40;;;;;;;27.80;33.83;101373.66;4924830;29;20425;-73
2022/08/28 09:11:33;;;;;;;8.33;4.70;;;;;;;27.19;35.13;101383.88;4925356;29;20824;-74
2022/08/28 09:14:19;;;;;;;5.93;4.10;;;;;;;26.03;37.15;101382.16;4941645;29;20807;-72
2022/08/28 09:16:45;;;;;;;8.67;4.60;;;;;;;25.72;38.01;101396.84;4941952;29;20417;-72
2022/08/28 09:19:14;;;;;;;6.27;4.23;;;;;;;24.51;39.75;101400.81;4942136;29;20417;-73
2022/08/28 09:21:42;;;;;;;6.83;4.33;;;;;;;25.83;37.38;101396.38;4925162;29;20422;-73
2022/08/28 09:24:15;;;;;;;7.87;4.57;;;;;;;28.13;33.42;101379.06;4941269;29;20453;-72
2022/08/28 09:26:40;;;;;;;6.50;4.10;;;;;;;30.00;31.40;101378.16;4925329;29;20414;-73
2022/08/28 09:29:13;;;;;;;6.60;3.90;;;;;;;28.99;32.56;101380.56;4941561;29;20428;-73
2022/08/28 09:31:40;;;;;;;7.10;4.20;;;;;;;28.60;32.22;101397.97;4941509;29;20173;-73
2022/08/28 09:34:24;;;;;;;7.57;4.13;;;;;;;28.68;31.31;101393.91;4941334;29;20466;-73
2022/08/28 09:36:51;;;;;;;6.30;4.27;;;;;;;28.10;32.24;101392.59;4941515;29;20413;-72
2022/08/28 09:39:25;;;;;;;6.50;4.10;;;;;;;27.32;34.48;101390.34;4941540;29;20417;-72
2022/08/28 09:44:59;;;;;;;7.07;4.70;;;;;;;25.54;37.80;101392.28;4941370;29;20669;-73
2022/08/28 09:47:49;;;;;;;6.40;4.37;;;;;;;25.86;37.12;101406.91;4924923;29;20472;-72
2022/08/28 09:50:19;;;;;;;9.90;4.57;;;;;;;25.32;38.65;101408.34;4924803;29;20818;-72
2022/08/28 09:52:45;;;;;;;7.23;4.23;;;;;;;26.08;36.72;101408.66;4941093;29;20954;-71
2022/08/28 09:55:20;;;;;;;8.20;4.50;;;;;;;25.45;38.03;101403.38;4924839;29;20417;-72
2022/08/28 09:57:47;;;;;;;5.70;3.97;;;;;;;26.35;37.02;101401.19;4924761;29;20628;-72
2022/08/28 10:00:13;;;;;;;6.93;4.20;;;;;;;25.62;38.01;101402.66;4941083;29;20456;-72
2022/08/28 10:03:07;;;;;;;5.40;4.00;;;;;;;25.07;39.96;101413.78;4941284;29;20456;-72
2022/08/28 10:05:45;;;;;;;9.87;4.77;;;;;;;25.15;39.95;101417.03;4920891;29;20201;-72
2022/08/28 10:08:40;;;;;;;8.60;4.47;;;;;;;25.14;39.91;101418.84;4924645;29;20442;-72
2022/08/28 10:11:25;;;;;;;9.23;4.80;;;;;;;25.85;38.52;101405.19;4924350;29;20429;-71
2022/08/28 10:14:06;;;;;;;9.67;4.37;;;;;;;25.39;38.68;101407.16;4940643;29;20469;-73
2022/08/28 10:17:00;;;;;;;9.23;4.70;;;;;;;25.92;37.76;101402.25;4924430;29;20425;-73
2022/08/28 10:19:40;;;;;;;10.90;5.00;;;;;;;25.80;36.86;101404.50;4932294;29;20422;-73
2022/08/28 10:22:24;;;;;;;10.07;4.20;;;;;;;25.15;39.30;101411.69;4924411;29;20445;-73
2022/08/28 10:25:02;;;;;;;6.90;4.93;;;;;;;24.17;40.61;101414.53;4924144;29;20468;-72
2022/08/28 10:27:43;;;;;;;13.27;5.17;;;;;;;25.10;38.97;101417.22;4940837;29;20417;-72
2022/08/28 10:30:15;;;;;;;11.70;4.60;;;;;;;24.49;40.41;101421.34;4924238;29;20443;-73
2022/08/28 10:33:05;;;;;;;11.83;5.60;;;;;;;24.87;40.07;101418.16;4940524;29;20709;-71
2022/08/28 10:35:56;;;;;;;11.50;4.90;;;;;;;24.28;41.30;101416.81;4940696;29;20421;-72
2022/08/28 10:38:48;;;;;;;8.93;4.87;;;;;;;23.54;42.91;101422.91;4924268;29;20417;-72
2022/08/28 10:41:28;;;;;;;20.13;5.10;;;;;;;22.93;44.57;101425.75;4940762;29;20425;-72
2022/08/28 10:43:54;;;;;;;9.77;5.13;;;;;;;22.64;43.63;101432.81;4940545;29;20421;-71
2022/08/28 10:46:33;;;;;;;9.80;5.33;;;;;;;22.61;44.42;101432.91;4940510;29;20418;-71
2022/08/28 10:49:04;;;;;;;8.57;4.83;;;;;;;23.18;42.86;101442.69;4924302;29;20413;-70
2022/08/28 10:51:32;;;;;;;7.70;4.93;;;;;;;23.41;42.27;101434.88;4923999;29;20429;-71
2022/08/28 10:54:02;;;;;;;8.73;4.60;;;;;;;23.75;41.26;101437.28;4940156;29;20468;-72
2022/08/28 10:56:43;;;;;;;10.23;5.30;;;;;;;23.40;42.47;101434.00;4923772;29;20426;-71
2022/08/28 10:59:08;;;;;;;9.57;5.07;;;;;;;23.27;41.89;101430.00;4923734;29;20499;-72
2022/08/28 11:01:37;;;;;;;9.30;4.80;;;;;;;23.23;42.55;101439.03;4940385;29;20676;-71
2022/08/28 11:04:23;;;;;;;9.00;5.13;;;;;;;23.67;41.51;101431.34;4923800;29;20182;-71
2022/08/28 11:07:01;;;;;;;10.77;5.87;;;;;;;23.91;40.55;101431.44;4923464;29;20520;-71
2022/08/28 11:09:34;;;;;;;10.90;4.93;;;;;;;23.31;41.74;101435.19;4940863;29;20444;-71
2022/08/28 11:12:03;;;;;;;6.73;5.10;;;;;;;23.13;42.92;101436.66;4923981;29;20831;-71
2022/08/28 11:14:34;;;;;;;11.90;5.37;;;;;;;24.56;40.33;101432.63;4923830;29;20440;-71
2022/08/28 11:17:03;;;;;;;8.80;5.27;;;;;;;25.92;37.92;101431.63;4923663;29;20524;-71
2022/08/28 11:19:53;;;;;;;7.87;5.07;;;;;;;26.36;36.55;101418.97;4940092;29;20449;-71
2022/08/28 11:22:33;;;;;;;8.57;5.43;;;;;;;25.35;38.15;101426.91;4923835;29;20429;-72
2022/08/28 11:25:11;;;;;;;7.27;4.63;;;;;;;26.59;36.63;101417.03;4923587;29;20552;-72
2022/08/28 11:27:38;;;;;;;8.30;4.90;;;;;;;26.12;35.96;101420.09;4940219;29;20677;-72
2022/08/28 11:30:15;;;;;;;8.17;4.73;;;;;;;25.05;37.40;101433.41;4923665;29;20432;-71
2022/08/28 11:32:49;;;;;;;11.27;5.60;;;;;;;25.81;37.07;101424.94;4941163;29;20467;-71